sensor_id;sensor_type;location;lat;lon;timestamp;pressure;altitude;pressure_sealevel;temperature;humidity
31873;BME280;22407;42.820;23.374;2024-01-25T00:00:46;96308.47;;;0.92;90.00
31873;BME280;22407;42.820;23.374;2024-01-25T00:03:12;96294.03;;;0.88;89.22
31873;BME280;22407;42.820;23.374;2024-01-25T00:05:37;96286.59;;;0.68;90.86
31873;BME280;22407;42.820;23.374;2024-01-25T00:08:03;96295.38;;;0.57;90.28
31873;BME280;22407;42.820;23.374;2024-01-25T00:10:29;96293.78;;;0.79;91.25
31873;BME280;22407;42.820;23.374;2024-01-25T00:12:54;96296.25;;;0.51;90.84
31873;BME280;22407;42.820;23.374;2024-01-25T00:15:20;96306.38;;;0.60;91.68
31873;BME280;22407;42.820;23.374;2024-01-25T00:17:45;96300.25;;;0.60;91.60
31873;BME280;22407;42.820;23.374;2024-01-25T00:20:11;96272.22;;;0.91;89.12
31873;BME280;22407;42.820;23.374;2024-01-25T00:22:36;96265.84;;;0.81;88.89
31873;BME280;22407;42.820;23.374;2024-01-25T00:25:03;96281.84;;;0.70;88.90
31873;BME280;22407;42.820;23.374;2024-01-25T00:27:29;96285.16;;;0.54;91.07
31873;BME280;22407;42.820;23.374;2024-01-25T00:29:55;96276.84;;;0.62;90.70
31873;BME280;22407;42.820;23.374;2024-01-25T00:32:21;96266.22;;;0.73;90.75
31873;BME280;22407;42.820;23.374;2024-01-25T00:34:47;96267.69;;;0.58;90.65
31873;BME280;22407;42.820;23.374;2024-01-25T00:37:12;96265.69;;;0.42;91.70
31873;BME280;22407;42.820;23.374;2024-01-25T00:39:38;96260.47;;;0.35;92.47
31873;BME280;22407;42.820;23.374;2024-01-25T00:42:05;96259.56;;;0.53;91.62
31873;BME280;22407;42.820;23.374;2024-01-25T00:44:31;96259.91;;;0.45;91.45
31873;BME280;22407;42.820;23.374;2024-01-25T00:46:57;96262.97;;;0.60;90.76
31873;BME280;22407;42.820;23.374;2024-01-25T00:49:23;96270.81;;;0.55;90.88
31873;BME280;22407;42.820;23.374;2024-01-25T00:51:49;96286.19;;;0.53;91.00
31873;BME280;22407;42.820;23.374;2024-01-25T00:54:15;96273.00;;;0.46;90.33
31873;BME280;22407;42.820;23.374;2024-01-25T00:56:41;96258.09;;;0.68;90.00
31873;BME280;22407;42.820;23.374;2024-01-25T00:59:07;96260.59;;;0.40;90.12
31873;BME280;22407;42.820;23.374;2024-01-25T01:01:33;96253.81;;;0.79;88.17
31873;BME280;22407;42.820;23.374;2024-01-25T01:03:59;96246.63;;;0.68;88.45
31873;BME280;22407;42.820;23.374;2024-01-25T01:06:25;96231.34;;;0.63;89.04
31873;BME280;22407;42.820;23.374;2024-01-25T01:08:51;96228.88;;;0.62;89.80
31873;BME280;22407;42.820;23.374;2024-01-25T01:11:18;96219.03;;;0.85;88.81
31873;BME280;22407;42.820;23.374;2024-01-25T01:13:43;96226.13;;;0.57;90.49
31873;BME280;22407;42.820;23.374;2024-01-25T01:16:09;96196.00;;;0.79;89.51
31873;BME280;22407;42.820;23.374;2024-01-25T01:18:35;96212.34;;;0.71;89.57
31873;BME280;22407;42.820;23.374;2024-01-25T01:21:00;96196.00;;;0.45;90.19
31873;BME280;22407;42.820;23.374;2024-01-25T01:23:26;96201.22;;;0.74;89.71
31873;BME280;22407;42.820;23.374;2024-01-25T01:25:51;96199.59;;;0.62;89.66
31873;BME280;22407;42.820;23.374;2024-01-25T01:28:17;96203.06;;;0.51;91.02
31873;BME280;22407;42.820;23.374;2024-01-25T01:30:43;96193.69;;;0.71;91.11
31873;BME280;22407;42.820;23.374;2024-01-25T01:33:09;96199.34;;;0.52;90.90
31873;BME280;22407;42.820;23.374;2024-01-25T01:35:35;96189.53;;;0.64;91.85
31873;BME280;22407;42.820;23.374;2024-01-25T01:38:00;96193.13;;;0.69;90.71
31873;BME280;22407;42.820;23.374;2024-01-25T01:40:26;96185.47;;;0.73;90.66
31873;BME280;22407;42.820;23.374;2024-01-25T01:42:51;96195.41;;;0.77;90.64
31873;BME280;22407;42.820;23.374;2024-01-25T01:45:17;96196.25;;;0.78;87.95
31873;BME280;22407;42.820;23.374;2024-01-25T01:47:42;96199.25;;;0.58;90.04
31873;BME280;22407;42.820;23.374;2024-01-25T01:50:09;96188.16;;;0.50;91.13
31873;BME280;22407;42.820;23.374;2024-01-25T01:52:35;96183.97;;;0.54;92.10
31873;BME280;22407;42.820;23.374;2024-01-25T01:55:01;96168.44;;;0.51;91.33
31873;BME280;22407;42.820;23.374;2024-01-25T01:57:27;96177.47;;;0.73;91.58
31873;BME280;22407;42.820;23.374;2024-01-25T01:59:53;96166.44;;;0.81;90.15
31873;BME280;22407;42.820;23.374;2024-01-25T02:02:19;96157.78;;;0.74;89.23
31873;BME280;22407;42.820;23.374;2024-01-25T02:04:44;96150.00;;;0.83;87.72
31873;BME280;22407;42.820;23.374;2024-01-25T02:07:11;96138.84;;;1.09;84.76
31873;BME280;22407;42.820;23.374;2024-01-25T02:09:37;96126.19;;;1.16;83.42
31873;BME280;22407;42.820;23.374;2024-01-25T02:12:03;96150.34;;;0.87;85.92
31873;BME280;22407;42.820;23.374;2024-01-25T02:14:30;96156.03;;;0.79;87.19
31873;BME280;22407;42.820;23.374;2024-01-25T02:16:56;96157.63;;;0.91;84.68
31873;BME280;22407;42.820;23.374;2024-01-25T02:19:22;96144.63;;;1.06;85.56
31873;BME280;22407;42.820;23.374;2024-01-25T02:21:47;96142.53;;;1.08;85.49
31873;BME280;22407;42.820;23.374;2024-01-25T02:24:14;96127.41;;;1.25;85.65
31873;BME280;22407;42.820;23.374;2024-01-25T02:26:40;96135.47;;;1.02;86.37
31873;BME280;22407;42.820;23.374;2024-01-25T02:29:05;96130.72;;;1.04;87.80
31873;BME280;22407;42.820;23.374;2024-01-25T02:31:33;96133.38;;;1.04;86.68
31873;BME280;22407;42.820;23.374;2024-01-25T02:33:59;96149.63;;;0.91;87.86
31873;BME280;22407;42.820;23.374;2024-01-25T02:36:24;96153.84;;;0.87;87.70
31873;BME280;22407;42.820;23.374;2024-01-25T02:38:50;96143.09;;;1.22;86.75
31873;BME280;22407;42.820;23.374;2024-01-25T02:41:15;96143.66;;;1.24;84.85
31873;BME280;22407;42.820;23.374;2024-01-25T02:43:41;96144.38;;;1.08;85.83
31873;BME280;22407;42.820;23.374;2024-01-25T02:46:07;96150.56;;;1.36;83.93
31873;BME280;22407;42.820;23.374;2024-01-25T02:48:34;96144.78;;;1.28;83.75
31873;BME280;22407;42.820;23.374;2024-01-25T02:51:00;96141.50;;;1.09;85.57
31873;BME280;22407;42.820;23.374;2024-01-25T02:53:25;96139.38;;;1.11;86.51
31873;BME280;22407;42.820;23.374;2024-01-25T02:55:51;96120.06;;;1.32;84.63
31873;BME280;22407;42.820;23.374;2024-01-25T02:58:16;96128.97;;;1.38;84.18
31873;BME280;22407;42.820;23.374;2024-01-25T03:00:42;96144.84;;;1.05;86.28
31873;BME280;22407;42.820;23.374;2024-01-25T03:03:08;96147.19;;;1.01;86.96
31873;BME280;22407;42.820;23.374;2024-01-25T03:05:33;96131.50;;;1.16;85.66
31873;BME280;22407;42.820;23.374;2024-01-25T03:08:00;96129.56;;;1.40;85.21
31873;BME280;22407;42.820;23.374;2024-01-25T03:10:25;96134.69;;;1.02;87.15
31873;BME280;22407;42.820;23.374;2024-01-25T03:12:51;96135.88;;;1.22;86.73
31873;BME280;22407;42.820;23.374;2024-01-25T03:15:16;96131.13;;;1.24;84.56
31873;BME280;22407;42.820;23.374;2024-01-25T03:17:42;96119.59;;;1.35;85.52
31873;BME280;22407;42.820;23.374;2024-01-25T03:20:09;96119.00;;;1.45;84.62
31873;BME280;22407;42.820;23.374;2024-01-25T03:22:35;96113.69;;;1.33;85.13
31873;BME280;22407;42.820;23.374;2024-01-25T03:25:00;96118.94;;;1.28;85.01
31873;BME280;22407;42.820;23.374;2024-01-25T03:27:26;96115.44;;;1.39;84.88
31873;BME280;22407;42.820;23.374;2024-01-25T03:29:51;96119.28;;;1.32;86.21
31873;BME280;22407;42.820;23.374;2024-01-25T03:32:17;96106.66;;;1.55;85.22
31873;BME280;22407;42.820;23.374;2024-01-25T03:34:42;96102.81;;;1.51;83.61
31873;BME280;22407;42.820;23.374;2024-01-25T03:37:08;96092.34;;;1.61;82.79
31873;BME280;22407;42.820;23.374;2024-01-25T03:39:34;96079.59;;;1.79;82.84
31873;BME280;22407;42.820;23.374;2024-01-25T03:41:59;96072.28;;;1.59;83.86
31873;BME280;22407;42.820;23.374;2024-01-25T03:44:24;96079.34;;;1.65;84.57
31873;BME280;22407;42.820;23.374;2024-01-25T03:46:50;96090.88;;;1.70;82.67
31873;BME280;22407;42.820;23.374;2024-01-25T03:49:16;96088.09;;;1.93;80.30
31873;BME280;22407;42.820;23.374;2024-01-25T03:51:41;96103.22;;;2.04;81.55
31873;BME280;22407;42.820;23.374;2024-01-25T03:54:07;96119.22;;;2.37;78.87
31873;BME280;22407;42.820;23.374;2024-01-25T03:56:33;96116.63;;;2.42;78.69
31873;BME280;22407;42.820;23.374;2024-01-25T03:58:59;96096.53;;;2.55;77.33
31873;BME280;22407;42.820;23.374;2024-01-25T04:01:24;96096.22;;;2.52;78.29
31873;BME280;22407;42.820;23.374;2024-01-25T04:03:50;96074.81;;;2.68;77.62
31873;BME280;22407;42.820;23.374;2024-01-25T04:06:16;96079.31;;;2.68;77.54
31873;BME280;22407;42.820;23.374;2024-01-25T04:08:42;96072.97;;;2.53;78.76
31873;BME280;22407;42.820;23.374;2024-01-25T04:11:10;96065.22;;;2.72;77.13
31873;BME280;22407;42.820;23.374;2024-01-25T04:13:35;96073.81;;;2.74;77.31
31873;BME280;22407;42.820;23.374;2024-01-25T04:16:01;96068.94;;;2.71;77.46
31873;BME280;22407;42.820;23.374;2024-01-25T04:18:26;96058.63;;;2.80;77.85
31873;BME280;22407;42.820;23.374;2024-01-25T04:20:52;96077.56;;;2.57;78.23
31873;BME280;22407;42.820;23.374;2024-01-25T04:23:17;96088.13;;;2.47;79.35
31873;BME280;22407;42.820;23.374;2024-01-25T04:25:43;96082.28;;;2.50;79.35
31873;BME280;22407;42.820;23.374;2024-01-25T04:28:09;96071.78;;;2.44;80.22
31873;BME280;22407;42.820;23.374;2024-01-25T04:30:34;96078.13;;;2.38;80.88
31873;BME280;22407;42.820;23.374;2024-01-25T04:33:00;96082.59;;;2.53;80.90
31873;BME280;22407;42.820;23.374;2024-01-25T04:35:25;96076.41;;;2.32;81.23
31873;BME280;22407;42.820;23.374;2024-01-25T04:37:51;96077.41;;;2.26;81.40
31873;BME280;22407;42.820;23.374;2024-01-25T04:40:16;96084.69;;;2.14;83.09
31873;BME280;22407;42.820;23.374;2024-01-25T04:42:42;96078.34;;;2.36;81.21
31873;BME280;22407;42.820;23.374;2024-01-25T04:45:08;96087.50;;;2.40;80.82
31873;BME280;22407;42.820;23.374;2024-01-25T04:47:34;96097.72;;;2.10;83.15
31873;BME280;22407;42.820;23.374;2024-01-25T04:49:59;96093.00;;;2.01;83.77
31873;BME280;22407;42.820;23.374;2024-01-25T04:52:25;96100.69;;;1.97;84.18
31873;BME280;22407;42.820;23.374;2024-01-25T04:54:50;96104.50;;;1.85;84.81
31873;BME280;22407;42.820;23.374;2024-01-25T04:57:16;96107.31;;;1.78;85.73
31873;BME280;22407;42.820;23.374;2024-01-25T04:59:42;96104.63;;;1.62;85.91
31873;BME280;22407;42.820;23.374;2024-01-25T05:02:08;96126.81;;;1.79;86.44
31873;BME280;22407;42.820;23.374;2024-01-25T05:04:33;96137.22;;;1.64;86.20
31873;BME280;22407;42.820;23.374;2024-01-25T05:07:00;96132.53;;;1.55;87.22
31873;BME280;22407;42.820;23.374;2024-01-25T05:09:26;96132.59;;;1.60;86.76
31873;BME280;22407;42.820;23.374;2024-01-25T05:11:51;96116.56;;;1.43;87.91
31873;BME280;22407;42.820;23.374;2024-01-25T05:14:17;96136.16;;;1.65;87.27
31873;BME280;22407;42.820;23.374;2024-01-25T05:16:43;96133.03;;;1.40;88.43
31873;BME280;22407;42.820;23.374;2024-01-25T05:19:08;96158.22;;;1.33;89.11
31873;BME280;22407;42.820;23.374;2024-01-25T05:21:34;96153.22;;;1.36;89.86
31873;BME280;22407;42.820;23.374;2024-01-25T05:23:59;96141.84;;;1.41;89.28
31873;BME280;22407;42.820;23.374;2024-01-25T05:26:25;96129.22;;;1.36;90.05
31873;BME280;22407;42.820;23.374;2024-01-25T05:28:51;96124.16;;;1.35;90.66
31873;BME280;22407;42.820;23.374;2024-01-25T05:31:16;96138.16;;;1.30;90.70
31873;BME280;22407;42.820;23.374;2024-01-25T05:33:42;96150.84;;;1.51;89.32
31873;BME280;22407;42.820;23.374;2024-01-25T05:36:08;96147.16;;;1.68;89.07
31873;BME280;22407;42.820;23.374;2024-01-25T05:38:34;96141.13;;;1.73;88.29
31873;BME280;22407;42.820;23.374;2024-01-25T05:40:59;96135.47;;;1.86;87.17
31873;BME280;22407;42.820;23.374;2024-01-25T05:43:25;96154.75;;;1.60;88.75
31873;BME280;22407;42.820;23.374;2024-01-25T05:45:51;96155.47;;;1.83;88.10
31873;BME280;22407;42.820;23.374;2024-01-25T05:48:16;96149.91;;;1.57;89.45
31873;BME280;22407;42.820;23.374;2024-01-25T05:50:42;96152.25;;;1.54;90.14
31873;BME280;22407;42.820;23.374;2024-01-25T05:53:07;96157.91;;;1.57;89.61
31873;BME280;22407;42.820;23.374;2024-01-25T05:55:33;96141.06;;;1.84;88.12
31873;BME280;22407;42.820;23.374;2024-01-25T05:57:58;96159.28;;;1.60;89.26
31873;BME280;22407;42.820;23.374;2024-01-25T06:00:24;96157.84;;;1.68;88.43
31873;BME280;22407;42.820;23.374;2024-01-25T06:02:49;96161.16;;;1.75;89.04
31873;BME280;22407;42.820;23.374;2024-01-25T06:05:15;96164.28;;;1.56;89.67
31873;BME280;22407;42.820;23.374;2024-01-25T06:07:40;96152.50;;;1.68;89.12
31873;BME280;22407;42.820;23.374;2024-01-25T06:10:07;96140.94;;;1.63;89.34
31873;BME280;22407;42.820;23.374;2024-01-25T06:12:33;96143.97;;;1.83;88.70
31873;BME280;22407;42.820;23.374;2024-01-25T06:14:58;96142.50;;;1.92;88.45
31873;BME280;22407;42.820;23.374;2024-01-25T06:17:24;96153.34;;;2.02;87.77
31873;BME280;22407;42.820;23.374;2024-01-25T06:19:49;96150.78;;;2.07;87.57
31873;BME280;22407;42.820;23.374;2024-01-25T06:22:15;96154.19;;;2.19;86.86
31873;BME280;22407;42.820;23.374;2024-01-25T06:24:42;96168.63;;;2.34;85.71
31873;BME280;22407;42.820;23.374;2024-01-25T06:27:09;96169.09;;;2.48;84.24
31873;BME280;22407;42.820;23.374;2024-01-25T06:29:35;96183.50;;;2.47;84.85
31873;BME280;22407;42.820;23.374;2024-01-25T06:32:00;96176.34;;;2.68;84.05
31873;BME280;22407;42.820;23.374;2024-01-25T06:34:26;96177.00;;;2.59;84.38
31873;BME280;22407;42.820;23.374;2024-01-25T06:36:52;96183.50;;;2.47;85.60
31873;BME280;22407;42.820;23.374;2024-01-25T06:39:17;96170.66;;;2.65;84.40
31873;BME280;22407;42.820;23.374;2024-01-25T06:41:42;96179.41;;;2.60;84.89
31873;BME280;22407;42.820;23.374;2024-01-25T06:44:08;96186.06;;;2.74;84.50
31873;BME280;22407;42.820;23.374;2024-01-25T06:46:34;96175.44;;;2.79;83.81
31873;BME280;22407;42.820;23.374;2024-01-25T06:48:59;96172.84;;;2.84;83.50
31873;BME280;22407;42.820;23.374;2024-01-25T06:51:25;96191.25;;;3.02;83.65
31873;BME280;22407;42.820;23.374;2024-01-25T06:53:51;96187.97;;;3.17;82.23
31873;BME280;22407;42.820;23.374;2024-01-25T06:56:16;96185.91;;;3.02;83.05
31873;BME280;22407;42.820;23.374;2024-01-25T06:58:42;96196.78;;;2.96;83.47
31873;BME280;22407;42.820;23.374;2024-01-25T07:01:07;96207.56;;;3.01;82.93
31873;BME280;22407;42.820;23.374;2024-01-25T07:03:33;96201.97;;;3.02;82.31
31873;BME280;22407;42.820;23.374;2024-01-25T07:05:58;96191.25;;;2.81;83.50
31873;BME280;22407;42.820;23.374;2024-01-25T07:08:24;96193.34;;;2.79;83.79
31873;BME280;22407;42.820;23.374;2024-01-25T07:10:50;96191.06;;;2.87;83.30
31873;BME280;22407;42.820;23.374;2024-01-25T07:13:15;96205.53;;;2.91;83.22
31873;BME280;22407;42.820;23.374;2024-01-25T07:15:41;96200.44;;;3.06;82.71
31873;BME280;22407;42.820;23.374;2024-01-25T07:18:07;96194.34;;;3.11;81.12
31873;BME280;22407;42.820;23.374;2024-01-25T07:20:33;96196.84;;;3.17;80.96
31873;BME280;22407;42.820;23.374;2024-01-25T07:22:59;96192.06;;;3.40;79.92
31873;BME280;22407;42.820;23.374;2024-01-25T07:25:24;96185.19;;;3.49;78.96
31873;BME280;22407;42.820;23.374;2024-01-25T07:27:50;96187.00;;;3.44;79.50
31873;BME280;22407;42.820;23.374;2024-01-25T07:30:16;96196.44;;;3.30;79.68
31873;BME280;22407;42.820;23.374;2024-01-25T07:32:41;96194.47;;;3.21;80.54
31873;BME280;22407;42.820;23.374;2024-01-25T07:35:11;96209.47;;;3.22;81.05
31873;BME280;22407;42.820;23.374;2024-01-25T07:37:37;96210.25;;;3.22;80.51
31873;BME280;22407;42.820;23.374;2024-01-25T07:40:03;96207.97;;;3.52;79.55
31873;BME280;22407;42.820;23.374;2024-01-25T07:42:32;96206.66;;;3.76;77.50
31873;BME280;22407;42.820;23.374;2024-01-25T07:44:57;96207.34;;;3.88;77.30
31873;BME280;22407;42.820;23.374;2024-01-25T07:47:23;96207.38;;;3.93;76.39
31873;BME280;22407;42.820;23.374;2024-01-25T07:49:48;96212.16;;;3.91;76.83
31873;BME280;22407;42.820;23.374;2024-01-25T07:52:14;96206.72;;;4.07;76.75
31873;BME280;22407;42.820;23.374;2024-01-25T07:54:40;96210.75;;;4.10;76.69
31873;BME280;22407;42.820;23.374;2024-01-25T07:57:05;96225.84;;;4.16;76.23
31873;BME280;22407;42.820;23.374;2024-01-25T07:59:31;96218.50;;;4.32;75.34
31873;BME280;22407;42.820;23.374;2024-01-25T08:01:56;96213.47;;;4.72;73.30
31873;BME280;22407;42.820;23.374;2024-01-25T08:04:22;96202.75;;;4.72;73.62
31873;BME280;22407;42.820;23.374;2024-01-25T08:06:47;96203.72;;;4.93;72.67
31873;BME280;22407;42.820;23.374;2024-01-25T08:09:13;96216.81;;;4.89;71.38
31873;BME280;22407;42.820;23.374;2024-01-25T08:11:38;96210.53;;;5.10;71.98
31873;BME280;22407;42.820;23.374;2024-01-25T08:14:04;96221.91;;;5.27;71.27
31873;BME280;22407;42.820;23.374;2024-01-25T08:16:30;96206.88;;;5.31;70.18
31873;BME280;22407;42.820;23.374;2024-01-25T08:18:56;96199.84;;;5.20;70.24
31873;BME280;22407;42.820;23.374;2024-01-25T08:21:21;96206.00;;;5.15;70.82
31873;BME280;22407;42.820;23.374;2024-01-25T08:23:47;96201.41;;;5.11;71.68
31873;BME280;22407;42.820;23.374;2024-01-25T08:26:13;96206.75;;;5.06;71.12
31873;BME280;22407;42.820;23.374;2024-01-25T08:28:39;96202.91;;;4.92;72.24
31873;BME280;22407;42.820;23.374;2024-01-25T08:31:05;96201.16;;;5.12;72.09
31873;BME280;22407;42.820;23.374;2024-01-25T08:33:31;96198.00;;;5.25;71.35
31873;BME280;22407;42.820;23.374;2024-01-25T08:35:56;96194.25;;;5.21;70.93
31873;BME280;22407;42.820;23.374;2024-01-25T08:38:22;96207.06;;;5.14;72.94
31873;BME280;22407;42.820;23.374;2024-01-25T08:40:48;96206.78;;;5.11;73.03
31873;BME280;22407;42.820;23.374;2024-01-25T08:43:13;96205.47;;;5.13;72.39
31873;BME280;22407;42.820;23.374;2024-01-25T08:45:39;96208.72;;;5.20;71.47
31873;BME280;22407;42.820;23.374;2024-01-25T08:48:05;96216.50;;;5.22;71.52
31873;BME280;22407;42.820;23.374;2024-01-25T08:50:31;96218.94;;;5.23;70.30
31873;BME280;22407;42.820;23.374;2024-01-25T08:52:56;96202.56;;;5.25;70.84
31873;BME280;22407;42.820;23.374;2024-01-25T08:55:21;96209.84;;;5.29;70.45
31873;BME280;22407;42.820;23.374;2024-01-25T08:57:48;96200.22;;;5.33;69.37
31873;BME280;22407;42.820;23.374;2024-01-25T09:00:13;96198.38;;;5.44;70.58
31873;BME280;22407;42.820;23.374;2024-01-25T09:02:40;96204.84;;;5.53;69.51
31873;BME280;22407;42.820;23.374;2024-01-25T09:05:06;96197.31;;;5.45;69.56
31873;BME280;22407;42.820;23.374;2024-01-25T09:07:32;96195.88;;;5.84;68.37
31873;BME280;22407;42.820;23.374;2024-01-25T09:09:57;96208.88;;;6.16;66.56
31873;BME280;22407;42.820;23.374;2024-01-25T09:12:24;96203.53;;;6.31;66.75
31873;BME280;22407;42.820;23.374;2024-01-25T09:14:49;96205.13;;;6.22;66.37
31873;BME280;22407;42.820;23.374;2024-01-25T09:17:15;96212.69;;;6.70;66.60
31873;BME280;22407;42.820;23.374;2024-01-25T09:19:50;96200.31;;;6.59;66.25
31873;BME280;22407;42.820;23.374;2024-01-25T09:22:16;96199.25;;;6.50;65.90
31873;BME280;22407;42.820;23.374;2024-01-25T09:24:43;96188.75;;;6.79;66.14
31873;BME280;22407;42.820;23.374;2024-01-25T09:27:09;96191.19;;;6.75;65.58
31873;BME280;22407;42.820;23.374;2024-01-25T09:29:34;96185.28;;;6.53;64.69
31873;BME280;22407;42.820;23.374;2024-01-25T09:32:00;96185.25;;;6.33;65.56
31873;BME280;22407;42.820;23.374;2024-01-25T09:34:26;96174.50;;;6.33;65.24
31873;BME280;22407;42.820;23.374;2024-01-25T09:36:51;96168.59;;;6.61;65.41
31873;BME280;22407;42.820;23.374;2024-01-25T09:39:17;96173.16;;;6.85;65.15
31873;BME280;22407;42.820;23.374;2024-01-25T09:41:43;96170.16;;;7.02;64.37
31873;BME280;22407;42.820;23.374;2024-01-25T09:44:09;96166.13;;;7.04;63.61
31873;BME280;22407;42.820;23.374;2024-01-25T09:46:34;96173.88;;;7.31;63.49
31873;BME280;22407;42.820;23.374;2024-01-25T09:49:01;96170.94;;;7.32;62.21
31873;BME280;22407;42.820;23.374;2024-01-25T09:51:31;96170.66;;;7.24;63.28
31873;BME280;22407;42.820;23.374;2024-01-25T09:54:02;96157.53;;;7.02;64.91
31873;BME280;22407;42.820;23.374;2024-01-25T09:56:31;96159.66;;;7.10;64.25
31873;BME280;22407;42.820;23.374;2024-01-25T09:58:58;96159.84;;;7.39;63.03
31873;BME280;22407;42.820;23.374;2024-01-25T10:01:24;96153.34;;;7.50;63.33
31873;BME280;22407;42.820;23.374;2024-01-25T10:03:50;96152.63;;;7.29;63.33
31873;BME280;22407;42.820;23.374;2024-01-25T10:06:16;96142.16;;;7.13;64.47
31873;BME280;22407;42.820;23.374;2024-01-25T10:08:42;96133.47;;;7.31;63.74
31873;BME280;22407;42.820;23.374;2024-01-25T10:11:08;96117.09;;;7.22;64.44
31873;BME280;22407;42.820;23.374;2024-01-25T10:14:00;96113.13;;;6.95;63.63
31873;BME280;22407;42.820;23.374;2024-01-25T10:16:26;96114.22;;;6.89;64.43
31873;BME280;22407;42.820;23.374;2024-01-25T10:18:51;96111.53;;;6.94;65.15
31873;BME280;22407;42.820;23.374;2024-01-25T10:21:17;96096.22;;;6.80;64.99
31873;BME280;22407;42.820;23.374;2024-01-25T10:23:46;96106.09;;;7.09;64.85
31873;BME280;22407;42.820;23.374;2024-01-25T10:26:16;96096.91;;;7.25;63.95
31873;BME280;22407;42.820;23.374;2024-01-25T10:28:42;96111.31;;;7.49;63.68
31873;BME280;22407;42.820;23.374;2024-01-25T10:31:08;96108.97;;;7.42;64.90
31873;BME280;22407;42.820;23.374;2024-01-25T10:33:34;96101.75;;;7.28;63.87
31873;BME280;22407;42.820;23.374;2024-01-25T10:36:01;96100.88;;;7.37;64.84
31873;BME280;22407;42.820;23.374;2024-01-25T10:38:35;96103.78;;;7.56;64.62
31873;BME280;22407;42.820;23.374;2024-01-25T10:41:05;96096.97;;;7.73;63.94
31873;BME280;22407;42.820;23.374;2024-01-25T10:43:31;96096.13;;;7.77;64.29
31873;BME280;22407;42.820;23.374;2024-01-25T10:45:57;96097.78;;;7.68;63.67
31873;BME280;22407;42.820;23.374;2024-01-25T10:48:27;96097.06;;;7.53;64.19
31873;BME280;22407;42.820;23.374;2024-01-25T10:50:54;96089.22;;;7.57;61.43
31873;BME280;22407;42.820;23.374;2024-01-25T10:53:21;96087.63;;;7.56;63.11
31873;BME280;22407;42.820;23.374;2024-01-25T10:55:47;96078.50;;;7.47;63.67
31873;BME280;22407;42.820;23.374;2024-01-25T10:58:14;96075.00;;;7.46;64.57
31873;BME280;22407;42.820;23.374;2024-01-25T11:00:40;96086.19;;;7.68;63.39
31873;BME280;22407;42.820;23.374;2024-01-25T11:03:06;96087.75;;;7.74;61.82
31873;BME280;22407;42.820;23.374;2024-01-25T11:05:32;96085.34;;;7.77;61.03
31873;BME280;22407;42.820;23.374;2024-01-25T11:07:58;96089.38;;;7.75;59.77
31873;BME280;22407;42.820;23.374;2024-01-25T11:10:25;96062.78;;;7.68;58.91
31873;BME280;22407;42.820;23.374;2024-01-25T11:12:54;96064.41;;;7.65;59.90
31873;BME280;22407;42.820;23.374;2024-01-25T11:15:29;96052.78;;;7.64;59.66
31873;BME280;22407;42.820;23.374;2024-01-25T11:17:56;96065.75;;;7.62;60.97
31873;BME280;22407;42.820;23.374;2024-01-25T11:20:26;96038.56;;;7.59;61.33
31873;BME280;22407;42.820;23.374;2024-01-25T11:22:59;96032.63;;;7.62;60.42
31873;BME280;22407;42.820;23.374;2024-01-25T11:25:27;96045.06;;;7.53;59.80
31873;BME280;22407;42.820;23.374;2024-01-25T11:27:54;96053.44;;;7.51;60.53
31873;BME280;22407;42.820;23.374;2024-01-25T11:30:20;96048.84;;;7.52;60.52
31873;BME280;22407;42.820;23.374;2024-01-25T11:32:47;96045.66;;;7.45;60.44
31873;BME280;22407;42.820;23.374;2024-01-25T11:35:13;96042.47;;;7.38;60.86
31873;BME280;22407;42.820;23.374;2024-01-25T11:37:49;96038.22;;;7.22;61.45
31873;BME280;22407;42.820;23.374;2024-01-25T11:40:17;96044.13;;;7.24;61.15
31873;BME280;22407;42.820;23.374;2024-01-25T11:42:44;96053.88;;;7.15;61.24
31873;BME280;22407;42.820;23.374;2024-01-25T11:45:11;96044.75;;;7.06;60.79
31873;BME280;22407;42.820;23.374;2024-01-25T11:47:37;96040.94;;;7.12;61.84
31873;BME280;22407;42.820;23.374;2024-01-25T11:50:04;96042.03;;;7.16;61.59
31873;BME280;22407;42.820;23.374;2024-01-25T11:52:30;96040.69;;;7.13;61.85
31873;BME280;22407;42.820;23.374;2024-01-25T11:55:05;96046.09;;;7.08;62.33
31873;BME280;22407;42.820;23.374;2024-01-25T11:57:34;96043.88;;;7.15;62.81
31873;BME280;22407;42.820;23.374;2024-01-25T12:00:02;96028.56;;;7.11;62.16
31873;BME280;22407;42.820;23.374;2024-01-25T12:02:28;96018.28;;;7.23;62.50
31873;BME280;22407;42.820;23.374;2024-01-25T12:04:56;96018.34;;;7.13;62.12
31873;BME280;22407;42.820;23.374;2024-01-25T12:07:21;96018.13;;;6.99;61.40
31873;BME280;22407;42.820;23.374;2024-01-25T12:10:01;96021.56;;;7.15;60.57
31873;BME280;22407;42.820;23.374;2024-01-25T12:12:27;96018.09;;;7.09;61.15
31873;BME280;22407;42.820;23.374;2024-01-25T12:14:57;96019.91;;;7.19;60.52
31873;BME280;22407;42.820;23.374;2024-01-25T12:17:23;96025.66;;;7.56;58.88
31873;BME280;22407;42.820;23.374;2024-01-25T12:19:48;96021.41;;;7.88;59.98
31873;BME280;22407;42.820;23.374;2024-01-25T12:22:20;96016.94;;;8.07;57.38
31873;BME280;22407;42.820;23.374;2024-01-25T12:24:46;96014.38;;;8.25;55.54
31873;BME280;22407;42.820;23.374;2024-01-25T12:27:11;95998.75;;;8.27;55.00
31873;BME280;22407;42.820;23.374;2024-01-25T12:29:37;95976.00;;;8.33;55.92
31873;BME280;22407;42.820;23.374;2024-01-25T12:32:02;95980.75;;;8.46;55.79
31873;BME280;22407;42.820;23.374;2024-01-25T12:34:28;95970.31;;;8.63;55.07
31873;BME280;22407;42.820;23.374;2024-01-25T12:36:53;95954.00;;;8.73;54.94
31873;BME280;22407;42.820;23.374;2024-01-25T12:39:19;95957.19;;;8.98;54.66
31873;BME280;22407;42.820;23.374;2024-01-25T12:41:45;95966.44;;;9.16;54.51
31873;BME280;22407;42.820;23.374;2024-01-25T12:44:10;95950.88;;;9.08;53.86
31873;BME280;22407;42.820;23.374;2024-01-25T12:46:36;95956.84;;;9.05;52.89
31873;BME280;22407;42.820;23.374;2024-01-25T12:49:01;95949.41;;;8.97;53.55
31873;BME280;22407;42.820;23.374;2024-01-25T12:51:29;95947.91;;;8.86;55.40
31873;BME280;22407;42.820;23.374;2024-01-25T12:53:55;95945.84;;;8.78;55.44